Time;durP1;ratioP1;P1;durP2;ratioP2;P2;SDS_P1;SDS_P2;PMS_P1;PMS_P2;Temp;Humidity;BMP_temperature;BMP_pressure;BME280_temperature;BME280_humidity;BME280_pressure;Samples;Min_cycle;Max_cycle;Signal;HPM_P1;HPM_P2
2021/12/22 00:01:32;;;;;;;48.67;27.60;;;-2.10;99.90;;;;;;4974691;28;20421;-31
2021/12/22 00:03:58;;;;;;;61.50;32.97;;;-2.10;99.90;;;;;;4968541;28;20226;-31
2021/12/22 00:06:26;;;;;;;56.90;33.27;;;-2.10;99.90;;;;;;4955065;28;20456;-29
2021/12/22 00:08:52;;;;;;;53.13;28.57;;;-2.10;99.90;;;;;;4985783;28;20557;-29
2021/12/22 00:11:19;;;;;;;42.93;25.23;;;-2.20;99.90;;;;;;4953210;28;20057;-30
2021/12/22 00:13:44;;;;;;;40.27;21.83;;;-2.10;99.90;;;;;;4969707;28;20042;-31
2021/12/22 00:16:10;;;;;;;37.43;21.50;;;-2.10;99.90;;;;;;4963043;28;20046;-30
2021/12/22 00:18:37;;;;;;;30.87;20.83;;;-2.10;99.90;;;;;;4963491;28;20046;-30
2021/12/22 00:21:03;;;;;;;33.80;20.03;;;-2.10;99.90;;;;;;4971829;28;20061;-30
2021/12/22 00:23:30;;;;;;;36.17;21.10;;;-2.20;99.90;;;;;;4992638;28;20060;-30
2021/12/22 00:25:56;;;;;;;33.47;20.70;;;-2.20;99.90;;;;;;5009053;28;20057;-30
2021/12/22 00:28:22;;;;;;;31.93;20.17;;;-2.20;99.90;;;;;;4975220;28;20059;-30
2021/12/22 00:30:50;;;;;;;33.43;19.33;;;-2.20;99.90;;;;;;5009158;28;20388;-30
2021/12/22 00:33:16;;;;;;;34.17;19.53;;;-2.20;99.90;;;;;;5008342;28;20054;-30
2021/12/22 00:35:45;;;;;;;35.43;20.90;;;-2.20;99.90;;;;;;5009039;28;20053;-30
2021/12/22 00:38:19;;;;;;;33.40;19.57;;;-2.20;99.90;;;;;;4975089;28;20735;-30
2021/12/22 00:40:46;;;;;;;38.90;20.77;;;-2.20;99.90;;;;;;5009030;28;20488;-30
2021/12/22 00:43:13;;;;;;;34.93;21.20;;;-2.30;99.90;;;;;;4990814;28;20048;-30
2021/12/22 00:45:39;;;;;;;36.40;19.70;;;-2.30;99.90;;;;;;5009086;28;20104;-30
2021/12/22 00:48:07;;;;;;;31.13;19.07;;;-2.30;99.90;;;;;;4975040;28;20054;-30
2021/12/22 00:50:35;;;;;;;30.60;19.57;;;-2.30;99.90;;;;;;5008752;28;20168;-30
2021/12/22 00:53:01;;;;;;;32.63;19.83;;;-2.40;99.90;;;;;;5008303;28;20046;-30
2021/12/22 00:55:27;;;;;;;30.87;18.07;;;-2.40;99.90;;;;;;4991035;28;20405;-31
2021/12/22 00:57:53;;;;;;;32.53;17.80;;;-2.40;99.90;;;;;;4992198;28;20493;-30
2021/12/22 01:00:22;;;;;;;27.87;17.17;;;-2.50;99.90;;;;;;5008008;28;20049;-30
2021/12/22 01:02:48;;;;;;;31.60;17.20;;;-2.50;99.90;;;;;;5007835;28;20085;-30
2021/12/22 01:05:16;;;;;;;30.23;17.30;;;-2.60;99.90;;;;;;4996998;28;20374;-31
2021/12/22 01:07:44;;;;;;;25.27;15.97;;;-2.60;99.90;;;;;;4992120;28;20391;-30
2021/12/22 01:10:11;;;;;;;28.73;17.70;;;-2.60;99.90;;;;;;4997512;28;20050;-30
2021/12/22 01:12:37;;;;;;;31.10;17.17;;;-2.60;99.90;;;;;;5007986;28;20049;-30
2021/12/22 01:15:06;;;;;;;26.93;15.57;;;-2.70;99.90;;;;;;5008578;28;20050;-31
2021/12/22 01:17:38;;;;;;;27.90;17.00;;;-2.70;99.90;;;;;;4991983;28;20516;-31
2021/12/22 01:20:13;;;;;;;29.83;16.50;;;-2.80;99.90;;;;;;5008556;28;20129;-30
2021/12/22 01:25:09;;;;;;;28.47;16.70;;;-2.90;99.90;;;;;;5008101;28;20062;-30
2021/12/22 01:27:40;;;;;;;30.20;17.20;;;-2.90;99.90;;;;;;4991689;28;20103;-30
2021/12/22 01:30:11;;;;;;;26.67;15.95;;;-3.00;99.90;;;;;;4990325;28;20065;-29
2021/12/22 01:32:37;;;;;;;23.45;12.35;;;-3.00;99.90;;;;;;5007963;28;20045;-30
2021/12/22 01:35:06;;;;;;;28.27;16.43;;;-3.00;99.90;;;;;;5008802;28;20042;-30
2021/12/22 01:37:32;;;;;;;25.30;16.87;;;-3.10;99.90;;;;;;4992843;28;20041;-30
2021/12/22 01:40:00;;;;;;;28.97;16.70;;;-3.10;99.90;;;;;;5007448;28;20401;-30
2021/12/22 01:42:26;;;;;;;27.43;16.00;;;-3.20;99.90;;;;;;5007155;28;20125;-30
2021/12/22 01:45:25;;;;;;;26.80;15.30;;;-3.20;99.90;;;;;;5008984;28;20049;-30
2021/12/22 01:50:50;;;;;;;26.37;15.03;;;-3.30;99.90;;;;;;5011731;28;20057;-30
2021/12/22 01:53:21;;;;;;;25.47;14.80;;;-3.30;99.90;;;;;;4993840;28;20400;-30
2021/12/22 01:56:12;;;;;;;22.67;15.23;;;-3.40;99.90;;;;;;5010619;28;20363;-30
2021/12/22 01:58:42;;;;;;;21.85;14.80;;;-3.40;99.90;;;;;;5005057;28;20057;-30
2021/12/22 02:01:09;;;;;;;24.33;15.27;;;-3.40;99.90;;;;;;5011725;28;20064;-30
2021/12/22 02:03:36;;;;;;;26.40;15.33;;;-3.50;99.90;;;;;;5010472;28;20141;-30
2021/12/22 02:06:04;;;;;;;22.97;14.73;;;-3.50;99.90;;;;;;4954197;28;20061;-30
2021/12/22 02:08:30;;;;;;;24.47;15.83;;;-3.60;99.90;;;;;;4995541;28;20457;-31
2021/12/22 02:10:55;;;;;;;27.80;15.53;;;-3.70;99.90;;;;;;4995730;28;20047;-30
2021/12/22 02:13:28;;;;;;;22.53;14.73;;;-3.70;99.90;;;;;;4989752;28;20581;-30
2021/12/22 02:15:53;;;;;;;25.13;15.53;;;-3.80;99.90;;;;;;5008331;28;20057;-30
2021/12/22 02:18:21;;;;;;;23.00;14.53;;;-3.80;99.90;;;;;;4994513;28;20042;-31
2021/12/22 02:20:48;;;;;;;23.97;15.53;;;-3.80;99.90;;;;;;4993843;28;20049;-30
2021/12/22 02:23:15;;;;;;;25.33;14.70;;;-3.90;99.90;;;;;;5010353;28;20054;-29
2021/12/22 02:25:50;;;;;;;23.73;15.40;;;-3.90;99.90;;;;;;4994264;28;20073;-30
2021/12/22 02:28:21;;;;;;;26.60;15.87;;;-3.90;99.90;;;;;;4994438;28;20061;-30
2021/12/22 02:30:47;;;;;;;26.50;16.35;;;-3.90;99.90;;;;;;5011183;28;20125;-30
2021/12/22 02:38:37;;;;;;;22.90;15.43;;;-4.00;99.90;;;;;;4985067;28;20537;-30
2021/12/22 02:41:06;;;;;;;26.08;15.95;;;-4.10;99.90;;;;;;4973860;28;20050;-30
2021/12/22 02:43:33;;;;;;;24.67;16.10;;;-4.10;99.90;;;;;;4972958;28;20134;-30
2021/12/22 02:46:00;;;;;;;23.60;14.73;;;-4.10;99.90;;;;;;4973978;28;20054;-30
2021/12/22 02:48:30;;;;;;;23.90;15.57;;;-4.10;99.90;;;;;;4957501;28;20069;-30
2021/12/22 02:50:59;;;;;;;20.67;14.82;;;-4.20;99.90;;;;;;4991391;28;20051;-30
2021/12/22 02:53:31;;;;;;;23.67;14.63;;;-4.20;99.90;;;;;;4990388;28;20050;-30
2021/12/22 02:56:05;;;;;;;23.48;14.30;;;-4.20;99.90;;;;;;4991523;28;20053;-30
2021/12/22 02:58:42;;;;;;;23.53;14.20;;;-4.30;99.90;;;;;;4978576;28;20064;-30
2021/12/22 03:06:13;;;;;;;21.07;14.60;;;-4.30;99.90;;;;;;4996069;28;20363;-30
2021/12/22 03:08:39;;;;;;;20.43;14.20;;;-4.40;99.90;;;;;;5003250;28;20042;-30
2021/12/22 03:11:05;;;;;;;24.73;14.97;;;-4.40;99.90;;;;;;5010943;28;20052;-30
2021/12/22 03:13:31;;;;;;;24.77;14.73;;;-4.50;99.90;;;;;;5009523;28;20313;-30
2021/12/22 03:15:57;;;;;;;21.80;14.87;;;-4.50;99.90;;;;;;5010655;28;20131;-30
2021/12/22 03:18:23;;;;;;;23.67;14.43;;;-4.50;99.90;;;;;;4992292;28;20540;-31
2021/12/22 03:20:57;;;;;;;24.97;15.77;;;-4.50;99.90;;;;;;5010765;28;20057;-30
2021/12/22 03:23:23;;;;;;;29.97;17.00;;;-4.50;99.90;;;;;;4984031;28;20050;-30
2021/12/22 03:25:49;;;;;;;26.20;16.70;;;-4.50;99.90;;;;;;4990750;28;20129;-30
2021/12/22 03:28:15;;;;;;;29.33;16.60;;;-4.50;99.90;;;;;;4973924;28;20049;-30
2021/12/22 03:30:41;;;;;;;28.97;17.20;;;-4.50;99.90;;;;;;5003551;28;20458;-31
2021/12/22 03:33:06;;;;;;;25.93;16.17;;;-4.50;99.90;;;;;;5008997;28;20564;-30
2021/12/22 03:35:35;;;;;;;30.50;18.30;;;-4.50;99.90;;;;;;5009979;28;20140;-30
2021/12/22 03:38:01;;;;;;;32.07;19.30;;;-4.40;99.90;;;;;;4994325;28;20049;-30
2021/12/22 03:40:27;;;;;;;33.53;19.73;;;-4.40;99.90;;;;;;5010114;28;20100;-30
2021/12/22 03:42:54;;;;;;;37.00;18.83;;;-4.30;99.90;;;;;;4991581;28;20054;-30
2021/12/22 03:45:20;;;;;;;32.60;19.00;;;-4.30;99.90;;;;;;5009631;28;20042;-30
2021/12/22 03:47:47;;;;;;;37.30;19.87;;;-4.20;99.90;;;;;;4975932;28;20407;-30
2021/12/22 03:50:14;;;;;;;32.20;18.37;;;-4.20;99.90;;;;;;5010228;28;20138;-30
2021/12/22 03:52:41;;;;;;;31.40;19.40;;;-4.20;99.90;;;;;;5009013;28;20256;-30
2021/12/22 03:55:08;;;;;;;29.07;18.27;;;-4.20;99.90;;;;;;5010042;28;20092;-30
2021/12/22 03:57:33;;;;;;;29.47;18.67;;;-4.20;99.90;;;;;;4975351;28;20041;-31
2021/12/22 04:00:00;;;;;;;32.10;18.93;;;-4.30;99.90;;;;;;5010440;28;20052;-30
2021/12/22 04:02:27;;;;;;;36.90;18.83;;;-4.30;99.90;;;;;;5010089;28;20121;-30
2021/12/22 04:04:53;;;;;;;29.47;18.80;;;-4.30;99.90;;;;;;4983802;28;20046;-30
2021/12/22 04:07:19;;;;;;;27.13;17.53;;;-4.30;99.90;;;;;;4993088;28;20042;-30
2021/12/22 04:09:45;;;;;;;28.27;17.33;;;-4.30;99.90;;;;;;5015751;28;20124;-30
2021/12/22 04:12:12;;;;;;;29.40;15.93;;;-4.40;99.90;;;;;;5027901;28;20057;-30
2021/12/22 04:14:38;;;;;;;31.70;17.00;;;-4.40;99.90;;;;;;5021629;28;20129;-30
2021/12/22 04:17:04;;;;;;;27.83;16.00;;;-4.40;99.90;;;;;;4992577;28;20046;-30
2021/12/22 04:19:30;;;;;;;28.63;16.07;;;-4.40;99.90;;;;;;5008967;28;20042;-30
2021/12/22 04:21:56;;;;;;;29.87;17.53;;;-4.50;99.90;;;;;;5009479;28;20108;-30
2021/12/22 04:24:22;;;;;;;30.87;15.87;;;-4.50;99.90;;;;;;4970456;28;20082;-30
2021/12/22 04:26:50;;;;;;;27.13;15.50;;;-4.50;99.90;;;;;;4953800;28;20097;-30
2021/12/22 04:29:16;;;;;;;30.63;17.17;;;-4.50;99.90;;;;;;4970900;28;20548;-31
2021/12/22 04:31:41;;;;;;;31.20;17.60;;;-4.50;99.90;;;;;;4989552;28;20086;-30
2021/12/22 04:34:08;;;;;;;28.03;16.90;;;-4.50;99.90;;;;;;4988697;28;20051;-30
2021/12/22 04:36:39;;;;;;;27.90;16.97;;;-4.50;99.90;;;;;;4975267;28;20493;-31
2021/12/22 04:39:08;;;;;;;30.95;16.95;;;-4.50;99.90;;;;;;4988089;28;20149;-30
2021/12/22 04:41:34;;;;;;;30.33;18.33;;;-4.50;99.90;;;;;;4989695;28;20038;-30
2021/12/22 04:44:00;;;;;;;36.13;18.27;;;-4.40;99.90;;;;;;4988537;28;20125;-30
2021/12/22 04:46:26;;;;;;;33.03;17.43;;;-4.40;99.90;;;;;;4976571;28;20042;-30
2021/12/22 04:48:52;;;;;;;31.50;17.77;;;-4.40;99.90;;;;;;4985456;28;20051;-30
2021/12/22 04:51:29;;;;;;;34.43;18.23;;;-4.40;99.90;;;;;;4989959;28;20486;-30
2021/12/22 04:54:04;;;;;;;39.90;22.13;;;-4.40;99.90;;;;;;4984199;28;20055;-30
2021/12/22 04:56:31;;;;;;;38.73;19.97;;;-4.40;99.90;;;;;;4956081;28;20086;-30
2021/12/22 04:58:57;;;;;;;35.93;19.47;;;-4.40;99.90;;;;;;4967718;28;20617;-30
2021/12/22 05:01:23;;;;;;;32.87;19.17;;;-4.40;99.90;;;;;;4981897;28;20113;-31
2021/12/22 05:03:48;;;;;;;42.07;19.23;;;-4.40;99.90;;;;;;4986262;28;20081;-30
2021/12/22 05:06:14;;;;;;;33.33;17.87;;;-4.30;99.90;;;;;;4973413;28;20054;-30
2021/12/22 05:08:40;;;;;;;31.57;18.17;;;-4.40;99.90;;;;;;4980776;28;20053;-30
2021/12/22 05:11:05;;;;;;;29.30;17.73;;;-4.40;99.90;;;;;;4971485;28;20137;-30
2021/12/22 05:13:34;;;;;;;36.77;19.37;;;-4.40;99.90;;;;;;4988346;28;20085;-30
2021/12/22 05:15:59;;;;;;;35.43;19.20;;;-4.40;99.90;;;;;;4974673;28;20050;-30
2021/12/22 05:18:47;;;;;;;33.20;18.93;;;-4.40;99.90;;;;;;4986691;28;20061;-30
2021/12/22 05:21:11;;;;;;;31.97;18.27;;;-4.40;99.90;;;;;;4988534;28;20047;-30
2021/12/22 05:23:36;;;;;;;33.13;17.60;;;-4.40;99.90;;;;;;4980294;28;20066;-30
2021/12/22 05:26:02;;;;;;;31.87;17.10;;;-4.40;99.90;;;;;;4991574;28;20054;-30
2021/12/22 05:28:28;;;;;;;28.43;16.60;;;-4.40;99.90;;;;;;4976256;28;20406;-30
2021/12/22 05:30:53;;;;;;;26.40;16.07;;;-4.40;99.90;;;;;;4975749;28;20042;-30
2021/12/22 05:33:19;;;;;;;29.53;16.97;;;-4.40;99.90;;;;;;5011400;28;20452;-30
2021/12/22 05:35:45;;;;;;;28.67;16.53;;;-4.50;99.90;;;;;;5012569;28;20447;-30
2021/12/22 05:38:11;;;;;;;33.50;17.17;;;-4.50;99.90;;;;;;4996608;28;20041;-30
2021/12/22 05:40:37;;;;;;;28.20;17.00;;;-4.50;99.90;;;;;;5012584;28;20054;-30
2021/12/22 05:43:03;;;;;;;31.97;17.20;;;-4.50;99.90;;;;;;5011284;28;20390;-30
2021/12/22 05:45:29;;;;;;;32.20;17.80;;;-4.50;99.90;;;;;;4994650;28;20543;-30
2021/12/22 05:47:54;;;;;;;30.77;18.10;;;-4.50;99.90;;;;;;4995515;28;20418;-30
2021/12/22 05:50:21;;;;;;;32.33;16.83;;;-4.50;99.90;;;;;;4994264;28;20441;-30
2021/12/22 05:52:47;;;;;;;30.77;16.90;;;-4.60;99.90;;;;;;4999330;28;20097;-30
2021/12/22 05:55:13;;;;;;;33.37;17.93;;;-4.60;99.90;;;;;;4992278;28;20042;-30
2021/12/22 05:57:39;;;;;;;36.83;19.03;;;-4.60;99.90;;;;;;4976042;28;20544;-30
2021/12/22 06:00:06;;;;;;;33.93;18.10;;;-4.60;99.90;;;;;;4994499;28;20082;-30
2021/12/22 06:02:32;;;;;;;34.40;20.27;;;-4.60;99.90;;;;;;5011853;28;20057;-30
2021/12/22 06:04:57;;;;;;;39.83;20.50;;;-4.60;99.90;;;;;;5003419;28;20034;-30
2021/12/22 06:07:23;;;;;;;44.43;22.37;;;-4.60;99.90;;;;;;4995693;28;20054;-30
2021/12/22 06:09:49;;;;;;;45.87;22.40;;;-4.60;99.90;;;;;;5001095;28;20054;-30
2021/12/22 06:12:15;;;;;;;46.27;23.00;;;-4.50;99.90;;;;;;5030641;28;20045;-30
2021/12/22 06:14:40;;;;;;;47.77;24.20;;;-4.50;99.90;;;;;;5024906;28;20410;-30
2021/12/22 06:17:06;;;;;;;45.93;23.93;;;-4.50;99.90;;;;;;4961058;28;20145;-30
2021/12/22 06:19:32;;;;;;;52.13;23.57;;;-4.50;99.90;;;;;;5010318;28;20239;-30
2021/12/22 06:21:57;;;;;;;44.23;23.70;;;-4.40;99.90;;;;;;5011552;28;20038;-30
2021/12/22 06:24:23;;;;;;;41.67;22.43;;;-4.40;99.90;;;;;;4982593;28;20066;-30
2021/12/22 06:26:49;;;;;;;45.10;23.30;;;-4.40;99.90;;;;;;4956396;28;20969;-30
2021/12/22 06:29:14;;;;;;;42.57;22.13;;;-4.40;99.90;;;;;;4980770;28;20039;-30
2021/12/22 06:31:40;;;;;;;38.77;20.87;;;-4.40;99.90;;;;;;4990914;28;20074;-30
2021/12/22 06:34:06;;;;;;;36.83;21.30;;;-4.30;99.90;;;;;;4989591;28;20047;-30
2021/12/22 06:36:32;;;;;;;39.93;20.60;;;-4.30;99.90;;;;;;4976286;28;20046;-30
2021/12/22 06:38:58;;;;;;;43.27;21.50;;;-4.30;99.90;;;;;;4988810;28;20054;-30
2021/12/22 06:41:24;;;;;;;40.70;21.43;;;-4.30;99.90;;;;;;4990654;28;20053;-30
2021/12/22 06:43:50;;;;;;;36.57;20.33;;;-4.30;99.90;;;;;;4972329;28;20416;-30
2021/12/22 06:46:15;;;;;;;40.83;20.53;;;-4.20;99.90;;;;;;4979537;28;20062;-29
2021/12/22 06:48:41;;;;;;;40.10;21.70;;;-4.20;99.90;;;;;;4967290;28;20361;-30
2021/12/22 06:51:07;;;;;;;35.30;19.87;;;-4.20;99.90;;;;;;4973047;28;20284;-30
2021/12/22 06:53:35;;;;;;;39.20;20.57;;;-4.20;99.90;;;;;;4989453;28;20053;-30
2021/12/22 06:56:02;;;;;;;38.30;20.73;;;-4.20;99.90;;;;;;4989074;28;20533;-31
2021/12/22 06:58:28;;;;;;;39.20;21.03;;;-4.20;99.90;;;;;;4973635;28;20073;-30
2021/12/22 07:00:53;;;;;;;37.13;19.83;;;-4.20;99.90;;;;;;4984918;28;20589;-30
2021/12/22 07:03:19;;;;;;;35.17;19.90;;;-4.20;99.90;;;;;;4970142;28;20203;-30
2021/12/22 07:05:45;;;;;;;39.40;20.73;;;-4.20;99.90;;;;;;4980417;28;20290;-30
2021/12/22 07:08:10;;;;;;;34.13;19.70;;;-4.20;99.90;;;;;;4972321;28;20358;-30
2021/12/22 07:10:36;;;;;;;34.77;19.00;;;-4.20;99.90;;;;;;4975522;28;20526;-30
2021/12/22 07:13:02;;;;;;;36.63;20.10;;;-4.20;99.90;;;;;;4928533;28;20146;-30
2021/12/22 07:15:27;;;;;;;42.40;22.00;;;-4.20;99.90;;;;;;4960882;28;20038;-30
2021/12/22 07:17:53;;;;;;;49.00;25.50;;;-4.20;99.90;;;;;;4959538;28;20053;-30
2021/12/22 07:20:19;;;;;;;43.37;23.03;;;-4.20;99.90;;;;;;4969646;28;20042;-30
2021/12/22 07:22:45;;;;;;;40.83;21.53;;;-4.20;99.90;;;;;;4985012;28;20549;-30
2021/12/22 07:25:12;;;;;;;41.33;21.80;;;-4.20;99.90;;;;;;4949805;28;1100971;-30
2021/12/22 07:27:38;;;;;;;44.10;23.33;;;-4.20;99.90;;;;;;4971250;28;20151;-30
2021/12/22 07:30:04;;;;;;;45.80;26.90;;;-4.20;99.90;;;;;;4985681;28;20135;-31
2021/12/22 07:32:30;;;;;;;46.00;27.80;;;-4.20;99.90;;;;;;4978303;28;20482;-30
2021/12/22 07:35:13;;;;;;;55.53;30.73;;;-4.20;99.90;;;;;;4977501;28;20051;-30
2021/12/22 07:37:47;;;;;;;53.13;30.83;;;-4.20;99.90;;;;;;4962153;28;20043;-30
2021/12/22 07:40:15;;;;;;;48.83;27.80;;;-4.20;99.90;;;;;;4987665;28;20050;-30
2021/12/22 07:42:41;;;;;;;47.43;26.93;;;-4.20;99.90;;;;;;4988678;28;20034;-30
2021/12/22 07:45:08;;;;;;;42.03;21.47;;;-4.00;99.90;;;;;;4987036;28;20383;-30
2021/12/22 07:47:34;;;;;;;36.53;19.63;;;-4.20;99.90;;;;;;4953182;28;20043;-30
2021/12/22 07:50:00;;;;;;;32.97;18.53;;;-4.20;99.90;;;;;;4989313;28;20068;-30
2021/12/22 07:52:27;;;;;;;35.50;19.43;;;-4.20;99.90;;;;;;4989192;28;20034;-30
2021/12/22 07:54:54;;;;;;;35.20;19.00;;;-4.20;99.90;;;;;;4990084;28;20057;-30
2021/12/22 07:57:20;;;;;;;37.70;20.10;;;-4.20;99.90;;;;;;4973705;28;20042;-31
2021/12/22 07:59:45;;;;;;;37.87;19.47;;;-4.20;99.90;;;;;;4989971;28;20048;-30
2021/12/22 08:02:12;;;;;;;37.50;19.20;;;-4.20;99.90;;;;;;4985712;28;20528;-30
2021/12/22 08:04:38;;;;;;;41.47;20.10;;;-4.20;99.90;;;;;;4982139;28;20236;-30
2021/12/22 08:07:04;;;;;;;31.63;18.23;;;-4.20;99.90;;;;;;4956336;28;20409;-31
2021/12/22 08:09:30;;;;;;;38.00;19.67;;;-4.20;99.90;;;;;;4985586;28;20043;-30
2021/12/22 08:12:04;;;;;;;37.07;18.00;;;-4.20;99.90;;;;;;4970655;28;20551;-31
2021/12/22 08:14:33;;;;;;;37.37;19.73;;;-4.20;99.90;;;;;;4974546;28;20049;-30
2021/12/22 08:16:59;;;;;;;37.63;19.90;;;-4.20;99.90;;;;;;4956305;28;20053;-30
2021/12/22 08:19:25;;;;;;;36.80;20.33;;;-4.10;99.90;;;;;;4988289;28;20054;-30
2021/12/22 08:21:50;;;;;;;51.10;27.37;;;-4.10;99.90;;;;;;4972187;28;20058;-30
2021/12/22 08:24:16;;;;;;;55.97;30.57;;;-4.10;99.90;;;;;;4980676;28;20046;-30
2021/12/22 08:26:42;;;;;;;51.93;27.90;;;-4.10;99.90;;;;;;4974785;28;20434;-30
2021/12/22 08:29:07;;;;;;;44.37;26.20;;;-4.10;99.90;;;;;;4988328;28;20460;-30
2021/12/22 08:31:33;;;;;;;37.97;21.23;;;-4.00;99.90;;;;;;4988151;28;20045;-30
2021/12/22 08:33:59;;;;;;;39.13;21.00;;;-4.00;99.90;;;;;;4988355;28;20081;-30
2021/12/22 08:39:11;;;;;;;34.97;19.20;;;-3.90;99.90;;;;;;4970245;28;20565;-30
2021/12/22 08:41:40;;;;;;;36.67;19.63;;;-3.90;99.90;;;;;;4989037;28;20034;-30
2021/12/22 08:44:10;;;;;;;37.50;18.73;;;-3.90;99.90;;;;;;4985863;28;20050;-30
2021/12/22 08:46:39;;;;;;;37.67;19.20;;;-3.80;99.90;;;;;;4974813;28;20506;-30
2021/12/22 08:49:06;;;;;;;34.47;17.97;;;-3.80;99.90;;;;;;4984592;28;20078;-30
2021/12/22 08:51:32;;;;;;;36.67;18.47;;;-3.80;99.90;;;;;;4988826;28;20118;-30
2021/12/22 08:54:00;;;;;;;33.83;19.00;;;-3.80;99.90;;;;;;4970274;28;20097;-30
2021/12/22 08:56:26;;;;;;;34.97;18.47;;;-3.70;99.90;;;;;;4976387;28;20512;-30
2021/12/22 08:58:54;;;;;;;38.53;19.27;;;-3.70;99.90;;;;;;4984834;28;20320;-30
2021/12/22 09:01:23;;;;;;;37.37;20.63;;;-3.70;99.90;;;;;;4988641;28;20049;-30
2021/12/22 09:03:50;;;;;;;39.60;19.67;;;-3.60;99.90;;;;;;4985915;28;20395;-30
2021/12/22 09:06:15;;;;;;;37.63;19.90;;;-3.60;99.90;;;;;;4972508;28;20540;-30
2021/12/22 09:08:42;;;;;;;35.63;19.60;;;-3.60;99.90;;;;;;4983196;28;20081;-30
2021/12/22 09:11:08;;;;;;;35.77;20.20;;;-3.50;99.90;;;;;;4989112;28;20089;-30
2021/12/22 09:13:37;;;;;;;36.00;19.20;;;-3.50;99.90;;;;;;4988768;28;20051;-30
2021/12/22 09:16:03;;;;;;;36.00;20.70;;;-3.50;99.90;;;;;;4988397;28;20135;-30
2021/12/22 09:18:29;;;;;;;43.10;22.10;;;-3.40;99.90;;;;;;4973778;28;20070;-30
2021/12/22 09:20:55;;;;;;;38.30;20.53;;;-3.40;99.90;;;;;;4988479;28;20074;-30
2021/12/22 09:23:21;;;;;;;42.23;21.37;;;-3.40;99.90;;;;;;4988378;28;20043;-31
2021/12/22 09:25:47;;;;;;;35.60;20.17;;;-3.30;99.90;;;;;;4990198;28;20483;-30
2021/12/22 09:28:13;;;;;;;36.37;20.37;;;-3.30;99.90;;;;;;4991730;28;20058;-30
2021/12/22 09:30:43;;;;;;;34.90;20.47;;;-3.30;99.90;;;;;;5008449;28;20037;-30
2021/12/22 09:33:11;;;;;;;38.70;19.80;;;-3.20;99.90;;;;;;4998571;28;20520;-31
2021/12/22 09:35:38;;;;;;;37.43;20.57;;;-3.20;99.90;;;;;;5005768;28;20050;-30
2021/12/22 09:38:06;;;;;;;36.20;21.20;;;-3.10;99.90;;;;;;4981756;28;20081;-30
2021/12/22 09:40:32;;;;;;;41.73;21.17;;;-3.10;99.90;;;;;;4985855;28;20497;-31
2021/12/22 09:42:58;;;;;;;42.90;21.83;;;-3.00;99.90;;;;;;4987039;28;20065;-30
2021/12/22 09:45:25;;;;;;;39.73;20.77;;;-3.00;99.90;;;;;;5005730;28;20117;-30
2021/12/22 09:50:50;;;;;;;37.60;21.40;;;-2.90;99.90;;;;;;5005478;28;20042;-30
2021/12/22 09:53:19;;;;;;;39.80;20.53;;;-2.80;99.90;;;;;;5003384;28;20050;-31
2021/12/22 09:55:45;;;;;;;41.10;20.67;;;-2.70;99.90;;;;;;4987401;28;20104;-30
2021/12/22 09:58:11;;;;;;;37.73;21.10;;;-2.60;99.90;;;;;;4986205;28;20066;-30
2021/12/22 10:00:39;;;;;;;35.83;20.00;;;-2.60;99.90;;;;;;5003697;28;20052;-30
2021/12/22 10:03:07;;;;;;;37.37;20.93;;;-2.50;99.90;;;;;;5004173;28;21515;-30
2021/12/22 10:05:35;;;;;;;37.20;20.67;;;-2.40;99.90;;;;;;4967749;28;20050;-30
2021/12/22 10:08:10;;;;;;;40.87;21.83;;;-2.30;99.90;;;;;;4988346;28;20048;-30
2021/12/22 10:10:39;;;;;;;42.00;21.63;;;-2.20;99.90;;;;;;5003860;28;20505;-30
2021/12/22 10:13:11;;;;;;;32.53;19.43;;;-2.20;99.90;;;;;;5006263;28;20048;-30
2021/12/22 10:15:38;;;;;;;38.30;20.40;;;-2.10;99.90;;;;;;4988156;28;20049;-30
2021/12/22 10:18:17;;;;;;;38.27;19.93;;;-2.00;99.90;;;;;;4987868;28;20052;-30
2021/12/22 10:20:45;;;;;;;37.13;20.73;;;-1.90;99.90;;;;;;5008569;28;20045;-30
2021/12/22 10:23:23;;;;;;;37.30;19.37;;;-1.80;99.90;;;;;;5007537;28;20096;-30
2021/12/22 10:25:53;;;;;;;37.93;18.70;;;-1.70;99.90;;;;;;4996886;28;20062;-31
2021/12/22 10:28:19;;;;;;;38.05;19.75;;;-1.60;99.90;;;;;;4978667;28;20525;-30
2021/12/22 10:30:47;;;;;;;33.13;19.10;;;-1.50;99.90;;;;;;4998809;28;20077;-30
2021/12/22 10:33:22;;;;;;;32.57;18.73;;;-1.50;99.90;;;;;;4995204;28;20374;-30
2021/12/22 10:35:50;;;;;;;33.73;18.70;;;-1.30;99.90;;;;;;4988537;28;20593;-30
2021/12/22 10:38:19;;;;;;;36.90;19.30;;;-1.20;99.90;;;;;;4985965;28;20045;-31
2021/12/22 10:40:49;;;;;;;30.63;17.77;;;-1.10;99.90;;;;;;4996881;28;20077;-31
2021/12/22 10:43:26;;;;;;;32.23;18.27;;;-1.10;99.90;;;;;;4992583;28;20050;-31
2021/12/22 10:45:59;;;;;;;32.27;17.70;;;-1.10;99.90;;;;;;4988964;28;20502;-30
2021/12/22 10:51:23;;;;;;;33.40;16.83;;;-1.10;99.90;;;;;;4988984;28;20054;-31
2021/12/22 10:53:50;;;;;;;29.87;17.33;;;-1.10;99.90;;;;;;4987998;28;20061;-30
2021/12/22 10:56:33;;;;;;;31.17;17.63;;;-1.10;99.90;;;;;;4978344;28;20046;-30
2021/12/22 10:59:00;;;;;;;27.20;17.07;;;-1.10;99.90;;;;;;4986306;28;20052;-30
2021/12/22 11:01:26;;;;;;;29.07;17.67;;;-1.10;99.90;;;;;;4993207;28;20056;-30
2021/12/22 11:04:01;;;;;;;34.10;17.57;;;-1.10;99.90;;;;;;4993576;28;20050;-30
2021/12/22 11:06:29;;;;;;;36.10;17.53;;;-1.10;99.90;;;;;;4978171;28;20047;-30
2021/12/22 11:09:23;;;;;;;31.27;16.50;;;-1.10;99.90;;;;;;4986094;28;20053;-30
2021/12/22 11:11:55;;;;;;;31.83;16.47;;;-1.00;99.90;;;;;;4991807;28;20050;-30
2021/12/22 11:14:24;;;;;;;30.83;16.23;;;-1.00;99.90;;;;;;4991766;28;20045;-30
2021/12/22 11:17:10;;;;;;;31.80;16.83;;;-1.00;99.90;;;;;;4979041;28;20116;-30
2021/12/22 11:19:48;;;;;;;27.03;16.07;;;-1.00;99.90;;;;;;4986639;28;20073;-30
2021/12/22 11:22:16;;;;;;;27.07;15.63;;;-1.00;99.90;;;;;;4986191;28;20117;-30
2021/12/22 11:24:47;;;;;;;27.07;15.63;;;-0.90;99.90;;;;;;4986655;28;20058;-30
2021/12/22 11:27:17;;;;;;;;;;;-0.90;99.90;;;;;;4954804;28;20137;-30
2021/12/22 11:29:47;;;;;;;30.07;15.97;;;-0.90;99.90;;;;;;4987395;28;19956;-31
2021/12/22 11:32:14;;;;;;;27.57;16.07;;;-0.80;99.90;;;;;;4986852;28;20050;-31
2021/12/22 11:34:43;;;;;;;29.87;15.50;;;-0.80;99.90;;;;;;4987629;28;20046;-31
2021/12/22 11:37:12;;;;;;;25.37;14.53;;;-0.70;99.90;;;;;;4970822;28;20046;-30
2021/12/22 11:39:38;;;;;;;27.33;15.53;;;-0.70;99.90;;;;;;4969636;28;20053;-30
2021/12/22 11:42:08;;;;;;;26.43;15.50;;;-0.70;99.90;;;;;;4986910;28;20414;-31
2021/12/22 11:44:36;;;;;;;28.17;15.50;;;-0.70;99.90;;;;;;4987504;28;20573;-30
2021/12/22 11:47:10;;;;;;;28.00;16.13;;;-0.60;99.90;;;;;;4971382;28;20997;-30
2021/12/22 11:49:52;;;;;;;34.03;19.00;;;-0.60;99.90;;;;;;4986461;28;20430;-30
2021/12/22 11:52:36;;;;;;;33.42;20.40;;;-0.60;99.90;;;;;;4986606;28;20061;-30
2021/12/22 11:55:07;;;;;;;33.27;18.83;;;-0.60;99.90;;;;;;4982685;28;20437;-30
2021/12/22 11:57:33;;;;;;;32.58;18.08;;;-0.60;99.90;;;;;;4970445;28;20038;-30
2021/12/22 12:00:18;;;;;;;31.80;16.50;;;-0.60;99.90;;;;;;4985495;28;20569;-31
2021/12/22 12:02:44;;;;;;;31.57;18.00;;;-0.70;99.90;;;;;;4983630;28;20053;-30
2021/12/22 12:05:18;;;;;;;29.57;16.90;;;-0.70;99.90;;;;;;4967928;28;20042;-30
2021/12/22 12:07:46;;;;;;;33.50;18.87;;;-0.70;99.90;;;;;;4963095;28;20046;-29
2021/12/22 12:10:34;;;;;;;31.90;18.90;;;-0.70;99.90;;;;;;4983546;28;20498;-30
2021/12/22 12:13:27;;;;;;;38.27;21.47;;;-0.70;99.90;;;;;;4982207;28;20050;-31
2021/12/22 12:21:57;;;;;;;28.87;17.57;;;-0.70;99.90;;;;;;4986507;28;20053;-31
2021/12/22 12:24:44;;;;;;;34.07;19.73;;;-0.70;99.90;;;;;;4981857;28;20445;-30
2021/12/22 12:27:43;;;;;;;31.50;18.60;;;-0.70;99.90;;;;;;4969020;28;20621;-30
2021/12/22 12:30:17;;;;;;;27.27;16.43;;;-0.70;99.90;;;;;;4984787;28;20420;-30
2021/12/22 12:32:46;;;;;;;35.77;19.23;;;-0.70;99.90;;;;;;4985565;28;20085;-30
2021/12/22 12:37:58;;;;;;;31.70;17.83;;;-0.70;99.90;;;;;;4970081;28;20129;-30
2021/12/22 12:40:44;;;;;;;30.50;17.97;;;-0.70;99.90;;;;;;4986335;28;20121;-30
2021/12/22 12:43:10;;;;;;;33.30;17.20;;;-0.60;99.90;;;;;;4967945;28;20066;-30
2021/12/22 12:45:47;;;;;;;32.33;19.70;;;-0.60;99.90;;;;;;4968024;28;20091;-30
2021/12/22 12:48:32;;;;;;;30.63;17.33;;;-0.50;99.90;;;;;;4969580;28;20050;-30
2021/12/22 12:51:14;;;;;;;29.60;18.37;;;-0.50;99.90;;;;;;4969380;28;20046;-30
2021/12/22 12:53:41;;;;;;;30.97;17.97;;;-0.50;99.90;;;;;;4982197;28;20490;-30
2021/12/22 12:56:09;;;;;;;32.97;19.47;;;-0.50;99.90;;;;;;4980425;28;20077;-30
2021/12/22 12:58:49;;;;;;;32.13;19.57;;;-0.60;99.90;;;;;;4976558;28;20042;-30
2021/12/22 13:01:15;;;;;;;35.53;18.90;;;-0.50;99.90;;;;;;4986146;28;20151;-30
2021/12/22 13:03:48;;;;;;;32.43;18.57;;;-0.50;99.90;;;;;;4985188;28;20181;-30
2021/12/22 13:06:15;;;;;;;31.27;16.83;;;-0.50;99.90;;;;;;4958996;28;20050;-30
2021/12/22 13:08:41;;;;;;;34.37;20.00;;;-0.50;99.90;;;;;;4962206;28;20513;-30